• Join FlightAware (Why Join?)
  • Login
  • US Flag 
12:18PM EST


 

Airport Tracker/Info


-or-


 

Live Flight TrackerFlight Track Log ✈ RPA3143 ✈ 16-Jul-2013 ✈ KDCA - KMCO

Flight Track Log - Related Links

Times and Time Zones

All times are in EDT time to prevent confusion due to time zone crossing. See the RPA3143 flight status page for this flight to view local times or setup timezone preferences in your user account.

Time Position Orientation Groundspeed Altitude Reporting Facility
EDT Latitude Longitude Course Direction KTS MPH feet Rate Location/Type
07:59AM 38.9000 -77.0667 233° Southwest 185 213 1,800  Level Potomac TRACON
08:00AM 38.9500 -77.1167 322° Northwest 256 295 3,500 2,580 Climbing Potomac TRACON
08:01AM 38.5553 -77.3614 218° Southwest  Level FlightAware Approximate
08:01AM 38.9833 -77.1833 303° West 269 310 6,500  Level Potomac TRACON
08:02AM 38.4826 -77.4486 225° Southwest  Level FlightAware Approximate
08:02AM 38.9500 -77.2667 243° Southwest 296 341 9,200  Level Potomac TRACON
08:03AM 38.4108 -77.5363 201° Southwest  Level FlightAware Approximate
08:03AM 38.8833 -77.3000 201° Southwest 325 374 10,700  Level Potomac TRACON
08:04AM 38.3406 -77.6212 233° Southwest  Level FlightAware Approximate
08:04AM 38.7833 -77.3500 201° Southwest 349 402 13,300  Level Potomac TRACON
08:05AM 38.7000 -77.4000 205° Southwest 353 406 15,300 1,740 Climbing Potomac TRACON
08:06AM 38.5356 -77.4919 204° Southwest 365 420 18,300 1,620 Climbing Washington Center
08:07AM 38.4408 -77.5453 204° Southwest 371 427 20,000 1,740 Climbing Washington Center
08:08AM 38.3542 -77.6303 218° Southwest 387 445 21,800 1,680 Climbing Washington Center
08:09AM 38.2772 -77.7342 227° Southwest 392 451 23,400 1,440 Climbing Washington Center
08:10AM 38.1878 -77.8267 219° Southwest 404 465 24,700 1,200 Climbing Washington Center
08:11AM 38.0986 -77.9217 220° Southwest 415 478 25,900 1,200 Climbing Washington Center
08:12AM 38.0133 -78.0058 218° Southwest 426 490 27,200 1,140 Climbing Washington Center
08:13AM 37.9092 -78.1106 218° Southwest 432 497 28,200 1,020 Climbing Washington Center
08:14AM 37.8278 -78.2025 222° Southwest 432 497 29,300 900 Climbing Washington Center
08:15AM 37.7319 -78.3017 219° Southwest 443 510 30,100 840 Climbing Washington Center
08:16AM 37.6336 -78.4003 218° Southwest 448 516 31,000 840 Climbing Washington Center
08:17AM 37.5331 -78.5014 219° Southwest 453 521 31,800 960 Climbing Washington Center
08:18AM 37.4261 -78.6097 219° Southwest 458 527 32,900 960 Climbing Washington Center
08:19AM 37.3256 -78.7103 219° Southwest 458 527 33,800 540 Climbing Washington Center
08:20AM 37.2247 -78.8106 218° Southwest 458 527 34,000 60 Climbing Washington Center
08:21AM 37.1261 -78.9106 219° Southwest 458 527 34,000  Level Washington Center
08:22AM 37.0317 -79.0053 219° Southwest 470 541 34,000  Level Washington Center
08:23AM 36.9286 -79.1100 219° Southwest 470 541 34,000  Level Washington Center
08:24AM 36.8233 -79.2114 218° Southwest 481 554 34,000  Level Washington Center
08:25AM 36.7178 -79.3156 218° Southwest 481 554 34,000  Level Washington Center
08:27AM 36.5131 -79.5158 218° Southwest 493 567 34,000  Level Atlanta Center
08:28AM 36.4064 -79.6225 219° Southwest 498 573 34,000  Level Atlanta Center
08:29AM 36.3136 -79.7125 218° Southwest 493 567 34,000  Level Atlanta Center
08:30AM 36.2047 -79.8161 218° Southwest 493 567 34,000  Level Atlanta Center
08:31AM 36.1017 -79.9192 219° Southwest 493 567 34,000  Level Atlanta Center
08:32AM 35.9858 -80.0047 211° Southwest 493 567 34,000  Level Atlanta Center
08:33AM 35.8503 -80.0756 203° Southwest 487 560 34,000  Level Atlanta Center
08:34AM 35.7250 -80.1353 201° Southwest 487 560 34,000  Level Atlanta Center
08:35AM 35.6164 -80.1942 204° Southwest 482 555 34,000  Level Atlanta Center
08:36AM 35.4906 -80.2383 196° South 482 555 34,000  Level Atlanta Center
08:37AM 35.3456 -80.2806 193° South 482 555 34,000  Level Atlanta Center
08:38AM 35.2175 -80.3194 194° South 482 555 34,000  Level Atlanta Center
08:40AM 34.9611 -80.3975 194° South 482 555 34,000  Level Jacksonville Center
08:41AM 34.8325 -80.4342 193° South 487 560 34,000  Level Jacksonville Center
08:42AM 34.7083 -80.4758 195° South 475 547 34,000  Level Jacksonville Center
08:43AM 34.5797 -80.5122 193° South 470 541 34,000  Level Jacksonville Center
08:44AM 34.4531 -80.5483 193° South 470 541 34,000  Level Jacksonville Center
08:45AM 34.3244 -80.5844 193° South 470 541 34,000  Level Jacksonville Center
08:46AM 34.1978 -80.6231 194° South 470 541 34,000  Level Jacksonville Center
08:47AM 34.0669 -80.6614 194° South 475 547 34,000  Level Jacksonville Center
08:48AM 33.9383 -80.6972 193° South 475 547 34,000  Level Jacksonville Center
08:49AM 33.8117 -80.7353 194° South 475 547 34,000  Level Jacksonville Center
08:50AM 33.6831 -80.7711 193° South 470 541 34,000  Level Jacksonville Center
08:51AM 33.5561 -80.8064 193° South 470 541 34,000  Level Jacksonville Center
08:52AM 33.4294 -80.8444 194° South 470 541 34,000  Level Jacksonville Center
08:53AM 33.3028 -80.8794 193° South 470 541 34,000  Level Jacksonville Center
08:54AM 33.1739 -80.9147 193° South 470 541 34,000  Level Jacksonville Center
08:55AM 33.0472 -80.9522 194° South 470 541 34,000  Level Jacksonville Center
08:56AM 32.9206 -80.9872 193° South 470 541 34,000  Level Jacksonville Center
08:57AM 32.7936 -81.0244 194° South 470 541 34,000  Level Jacksonville Center
08:58AM 32.6586 -81.0617 193° South 462 532 34,000  Level Jacksonville Center
08:59AM 32.5442 -81.0936 193° South 462 532 34,000  Level Jacksonville Center
09:00AM 32.3986 -81.1333 193° South 479 551 34,000  Level Jacksonville Center
09:01AM 32.2717 -81.1678 193° South 486 559 34,000  Level Jacksonville Center
09:02AM 32.1447 -81.1972 191° South 469 540 34,000  Level Jacksonville Center
09:03AM 32.0133 -81.1969 180° South 466 536 34,000  Level Jacksonville Center
09:04AM 31.8858 -81.1922 178° South 461 531 34,000  Level Jacksonville Center
09:05AM 31.7689 -81.1894 179° South 467 537 34,000  Level Jacksonville Center
09:06AM 31.6247 -81.1847 178° South 462 532 34,000  Level Jacksonville Center
09:07AM 31.4972 -81.1797 178° South 467 537 34,000  Level Jacksonville Center
09:08AM 31.3783 -81.1744 178° South 467 537 34,000  Level Jacksonville Center
09:09AM 31.2361 -81.1747 180° South 467 537 34,000  Level Jacksonville Center
09:10AM 31.1067 -81.1700 178° South 474 545 34,000  Level Jacksonville Center
09:11AM 30.9731 -81.1650 178° South 473 544 34,000  Level Jacksonville Center
09:12AM 30.8478 -81.1600 178° South 473 544 34,000  Level Jacksonville Center
09:13AM 30.7161 -81.1575 179° South 473 544 34,000 -120 Level Jacksonville Center
09:14AM 30.5867 -81.1528 178° South 473 544 33,800 -660 Descending Jacksonville Center
09:15AM 30.4822 -81.1497 179° South 473 544 32,700 -1,200 Descending Jacksonville Center
09:16AM 30.3422 -81.1453 178° South 467 537 31,400 -1,320 Descending Jacksonville Center
09:17AM 30.2128 -81.1403 178° South 467 537 30,100 -1,320 Descending Jacksonville Center
09:18AM 30.0792 -81.1403 180° South 467 537 28,800 -1,320 Descending Jacksonville Center
09:19AM 29.9536 -81.1331 177° South 467 537 27,500 -1,320 Descending Jacksonville Center
09:20AM 29.8283 -81.1306 179° South 460 529 26,200 -1,320 Descending Jacksonville Center
09:21AM 29.7053 -81.1256 178° South 455 524 24,900 -1,380 Descending Jacksonville Center
09:22AM 29.5842 -81.1231 179° South 445 512 23,500 -1,860 Descending Jacksonville Center
09:23AM 29.4714 -81.1178 178° South 425 489 21,200 -2,460 Descending Jacksonville Center
09:24AM 29.3586 -81.1175 180° South 413 475 18,600 -2,340 Descending Jacksonville Center
09:25AM 29.2542 -81.1075 175° South 402 463 16,600 -2,100 Descending Jacksonville Center
09:26AM 29.1497 -81.1000 176° South 380 437 14,500 -2,040 Descending Jacksonville Center
09:27AM 29.0514 -81.0944 177° South 368 423 12,600 -1,200 Descending Jacksonville Center
09:28AM 28.9553 -81.0867 176° South 361 415 12,100 -360 Descending Jacksonville Center
09:29AM 28.8572 -81.0908 182° South 355 409 11,900 -780 Descending Jacksonville Center
09:30AM 28.8000 -81.1000 188° South 357 411 11,000 -1,200 Descending Orlando TRACON
09:31AM 28.7167 -81.1333 199° South 304 350 10,100 -960 Descending Orlando TRACON
09:32AM 28.6333 -81.1667 199° South 287 330 9,100 -1,380 Descending Orlando TRACON
09:33AM 28.5500 -81.1833 190° South 288 331 7,400 -1,620 Descending Orlando TRACON
09:34AM 28.4667 -81.1833 180° South 272 313 5,900 -1,080 Descending Orlando TRACON
09:35AM 28.4000 -81.1833 180° South 226 260 5,300 -720 Descending Orlando TRACON
09:36AM 28.3500 -81.2000 196° South 229 264 4,500 -1,020 Descending Orlando TRACON
09:37AM 28.3000 -81.2500 221° Southwest 247 284 3,200 -1,200 Descending Orlando TRACON